NRCO2: Canadian River at Norman, OK

                                SHEF ID:       NRCO2     Canadian River at Norman, OK
STATION TYPE:

STAGE RIV-FLOW BAT-LOAD
ft cfs volt
Ccp-Rev Ccp-Rev Ccp-Rev
(America/Chicago)
01/26 00:00 86.64 370 11.53
01/26 01:00 86.62 361 11.53
01/26 02:00 86.63 365 11.53
01/26 03:00 86.62 361 11.53
01/26 04:00 86.65 375 11.53
01/26 05:00 86.64 370 11.46
01/26 06:00 86.67 384 11.53
01/26 07:00 86.67 384 11.53
01/26 08:00 86.75 423 11.46
01/26 09:00 86.83 463 11.46
01/26 10:00 86.91 506 11.46
01/26 11:00 87.00 557 11.53
01/26 12:00 87.01 563 11.53
01/26 13:00 87.04 580 11.53
01/26 14:00 86.99 551 11.53
01/26 15:00 86.98 545 11.53
01/26 16:00 86.96 534 11.46
01/26 17:00 86.99 551 11.46
01/26 18:00 87.03 574 11.46
01/26 19:00 87.08 604 11.46
01/26 20:00 87.06 592 11.46
01/26 21:00 87.07 598 11.46
01/26 22:00 87.06 592 11.46
01/26 23:00 87.08 604 11.46
Data processed at Sat 27Jan2024 05:19 GMT

Parsing this webpage?

Checkout our new Data API! CWMSDataAPI (CDA)

Timeseries IDs (TSIDs)

TSIDs used from left to right in the data table
NORM.Stage.Inst.1Hour.0.Ccp-Rev
NORM.Flow.Inst.1Hour.0.Ccp-Rev
NORM.Volt-Battery Load.Inst.1Hour.0.Ccp-Rev

                            

All information presented herein is the property of the government of the United States of America and may be revised or deleted at any time without prior notice. Dissemination of this information without the expressed written consent of the Public Affairs Office, Tulsa District U.S. Army Corps of Engineers is strictly prohibited. These data are gathered electronically and, as presented, have NOT undergone any form of quality control. These data are NOT guaranteed to be valid or correct.